createdAt,value
2023-04-18T00:02:24.387Z,100.00
2023-04-18T00:05:12.486Z,100.00
2023-04-18T00:07:58.372Z,100.00
2023-04-18T00:10:44.703Z,100.00
2023-04-18T00:13:30.264Z,100.00
2023-04-18T00:16:16.777Z,100.00
2023-04-18T00:19:04.931Z,100.00
2023-04-18T00:21:53.612Z,100.00
2023-04-18T00:24:40.511Z,100.00
2023-04-18T00:27:27.313Z,100.00
2023-04-18T00:30:13.802Z,100.00
2023-04-18T00:32:59.891Z,100.00
2023-04-18T00:35:45.976Z,100.00
2023-04-18T00:38:33.891Z,100.00
2023-04-18T00:41:20.746Z,100.00
2023-04-18T00:44:07.646Z,100.00
2023-04-18T00:46:54.425Z,100.00
2023-04-18T00:49:40.891Z,100.00
2023-04-18T00:52:27.937Z,100.00
2023-04-18T00:55:14.226Z,100.00
2023-04-18T00:58:00.215Z,100.00
2023-04-18T01:00:47.314Z,100.00
2023-04-18T01:03:35.673Z,100.00
2023-04-18T01:06:22.951Z,100.00
2023-04-18T01:09:08.909Z,100.00
2023-04-18T01:11:55.410Z,100.00
2023-04-18T01:14:44.581Z,100.00
2023-04-18T01:17:32.026Z,100.00
2023-04-18T01:20:17.718Z,100.00
2023-04-18T01:23:04.049Z,100.00
2023-04-18T01:25:50.078Z,100.00
2023-04-18T01:28:37.675Z,100.00
2023-04-18T01:31:23.589Z,100.00
2023-04-18T01:34:10.769Z,100.00
2023-04-18T01:36:56.431Z,100.00
2023-04-18T01:39:42.612Z,100.00
2023-04-18T01:42:30.040Z,100.00
2023-04-18T01:45:17.302Z,100.00
2023-04-18T01:48:03.364Z,100.00
2023-04-18T01:50:49.610Z,100.00
2023-04-18T01:53:35.295Z,100.00
2023-04-18T01:56:22.006Z,100.00
2023-04-18T01:59:07.872Z,100.00
2023-04-18T02:01:55.559Z,100.00
2023-04-18T02:04:43.291Z,100.00
2023-04-18T02:07:29.838Z,100.00
2023-04-18T02:10:16.081Z,100.00
2023-04-18T02:13:02.385Z,100.00
2023-04-18T02:15:48.984Z,100.00
2023-04-18T02:18:35.354Z,100.00
2023-04-18T02:21:22.098Z,100.00
2023-04-18T02:24:08.851Z,100.00
2023-04-18T02:26:54.550Z,100.00
2023-04-18T02:29:41.126Z,100.00
2023-04-18T02:32:27.063Z,100.00
2023-04-18T02:35:13.543Z,100.00
2023-04-18T02:37:59.818Z,100.00
2023-04-18T02:40:46.342Z,100.00
2023-04-18T02:43:32.120Z,100.00
2023-04-18T02:46:18.444Z,100.00
2023-04-18T02:49:07.513Z,100.00
2023-04-18T02:51:58.012Z,100.00
2023-04-18T02:54:44.245Z,100.00
2023-04-18T02:57:35.270Z,100.00
2023-04-18T03:00:38.833Z,100.00
2023-04-18T03:03:43.992Z,100.00
2023-04-18T03:06:49.112Z,100.00
2023-04-18T03:09:36.941Z,100.00
2023-04-18T03:12:30.641Z,100.00
2023-04-18T03:15:17.099Z,100.00
2023-04-18T03:18:03.151Z,100.00
2023-04-18T03:20:53.267Z,100.00
2023-04-18T03:23:39.455Z,100.00
2023-04-18T03:26:26.620Z,100.00
2023-04-18T03:29:13.861Z,100.00
2023-04-18T03:32:04.265Z,100.00
2023-04-18T03:34:51.445Z,100.00
2023-04-18T03:37:38.028Z,100.00
2023-04-18T03:40:24.261Z,100.00
2023-04-18T03:43:13.524Z,100.00
2023-04-18T03:46:00.494Z,100.00
2023-04-18T03:48:47.647Z,100.00
2023-04-18T03:51:41.802Z,100.00
2023-04-18T03:54:27.932Z,100.00
2023-04-18T03:57:13.718Z,100.00
2023-04-18T04:00:01.053Z,100.00
2023-04-18T04:02:50.463Z,100.00
2023-04-18T04:05:40.255Z,100.00
2023-04-18T04:08:27.667Z,100.00
2023-04-18T04:11:14.566Z,100.00
2023-04-18T04:14:01.335Z,100.00
2023-04-18T04:16:53.993Z,100.00
2023-04-18T04:19:40.728Z,100.00
2023-04-18T04:22:32.848Z,100.00
2023-04-18T04:25:19.621Z,100.00
2023-04-18T04:28:07.023Z,100.00
2023-04-18T04:31:01.745Z,100.00
2023-04-18T04:33:48.279Z,100.00
2023-04-18T04:36:37.920Z,100.00
2023-04-18T04:39:26.074Z,100.00
2023-04-18T04:42:29.524Z,100.00
2023-04-18T04:45:24.623Z,100.00
2023-04-18T04:48:11.602Z,100.00
2023-04-18T04:51:00.188Z,100.00
2023-04-18T04:53:47.469Z,100.00
2023-04-18T04:56:33.716Z,100.00
2023-04-18T04:59:19.814Z,100.00
2023-04-18T05:02:06.210Z,100.00
2023-04-18T05:04:52.239Z,100.00
2023-04-18T05:07:38.449Z,100.00
2023-04-18T05:10:24.599Z,100.00
2023-04-18T05:13:13.091Z,100.00
2023-04-18T05:15:59.395Z,100.00
2023-04-18T05:18:46.220Z,100.00
2023-04-18T05:21:33.019Z,100.00
2023-04-18T05:24:19.788Z,100.00
2023-04-18T05:27:06.417Z,100.00
2023-04-18T05:29:53.043Z,100.00
2023-04-18T05:32:39.332Z,100.00
2023-04-18T05:35:26.899Z,100.00
2023-04-18T05:38:12.649Z,100.00
2023-04-18T05:41:00.538Z,100.00
2023-04-18T05:43:54.186Z,100.00
2023-04-18T05:46:45.146Z,100.00
2023-04-18T05:49:31.170Z,100.00
2023-04-18T05:52:21.069Z,100.00
2023-04-18T05:55:07.642Z,100.00
2023-04-18T05:57:53.998Z,100.00
2023-04-18T06:00:39.930Z,100.00
2023-04-18T06:03:26.476Z,100.00
2023-04-18T06:06:13.034Z,100.00
2023-04-18T06:08:59.606Z,100.00
2023-04-18T06:11:45.682Z,100.00
2023-04-18T06:14:31.941Z,100.00
2023-04-18T06:17:18.457Z,100.00
2023-04-18T06:20:06.357Z,100.00
2023-04-18T06:22:52.415Z,100.00
2023-04-18T06:25:41.768Z,100.00
2023-04-18T06:28:28.653Z,100.00
2023-04-18T06:31:15.586Z,100.00
2023-04-18T06:34:01.980Z,100.00
2023-04-18T06:36:49.405Z,100.00
2023-04-18T06:39:35.131Z,100.00
2023-04-18T06:42:22.589Z,100.00
2023-04-18T06:45:12.660Z,100.00
2023-04-18T06:55:51.410Z,100.00
2023-04-18T06:59:09.045Z,100.00
2023-04-18T07:02:36.830Z,100.00
2023-04-18T07:06:05.630Z,100.00
2023-04-18T07:09:20.412Z,100.00
2023-04-18T07:13:09.453Z,100.00
2023-04-18T07:16:24.722Z,100.00
2023-04-18T07:19:51.308Z,100.00
2023-04-18T07:23:01.977Z,100.00
2023-04-18T07:29:42.324Z,100.00
2023-04-18T07:33:24.136Z,100.00
2023-04-18T07:36:51.729Z,100.00
2023-04-18T07:40:30.731Z,100.00
2023-04-18T07:44:21.496Z,100.00
2023-04-18T07:47:38.647Z,100.00
2023-04-18T07:51:42.594Z,100.00
2023-04-18T07:55:07.685Z,100.00
2023-04-18T08:22:15.942Z,100.00
2023-04-18T08:25:51.534Z,100.00
2023-04-18T08:29:02.389Z,100.00
2023-04-18T08:32:04.478Z,100.00
2023-04-18T08:35:31.360Z,100.00
2023-04-18T08:42:11.551Z,100.00
2023-04-18T08:45:13.810Z,100.00
2023-04-18T08:48:41.238Z,100.00
2023-04-18T08:52:26.494Z,100.00
2023-04-18T08:55:29.154Z,100.00
2023-04-18T09:06:21.059Z,100.00
2023-04-18T09:09:56.277Z,100.00
2023-04-18T09:13:00.960Z,100.00
2023-04-18T09:20:18.953Z,100.00
2023-04-18T09:28:55.874Z,100.00
2023-04-18T09:31:54.528Z,100.00
2023-04-18T09:34:42.578Z,100.00
2023-04-18T09:37:29.337Z,100.00
2023-04-18T09:40:19.315Z,100.00
2023-04-18T09:43:19.552Z,99.47
2023-04-18T09:46:06.185Z,99.43
2023-04-18T09:48:52.224Z,99.08
2023-04-18T09:51:40.496Z,99.03
2023-04-18T09:54:26.324Z,99.11
2023-04-18T09:57:13.976Z,98.79
2023-04-18T10:00:14.172Z,99.14
2023-04-18T10:03:08.417Z,98.82
2023-04-18T10:05:55.866Z,99.00
2023-04-18T10:08:48.085Z,98.83
2023-04-18T10:11:34.176Z,99.23
2023-04-18T10:14:21.416Z,99.16
2023-04-18T10:17:07.646Z,99.21
2023-04-18T10:20:10.334Z,98.04
2023-04-18T10:22:57.935Z,98.38
2023-04-18T10:25:50.767Z,98.75
2023-04-18T10:28:54.928Z,98.53
2023-04-18T10:31:41.240Z,98.47
2023-04-18T10:34:27.177Z,98.77
2023-04-18T10:37:14.000Z,98.74
2023-04-18T10:40:05.851Z,97.36
2023-04-18T10:42:52.215Z,97.48
2023-04-18T10:45:38.398Z,97.30
2023-04-18T10:48:27.893Z,97.94
2023-04-18T10:51:23.248Z,96.79
2023-04-18T10:54:12.089Z,96.94
2023-04-18T10:56:59.760Z,97.11
2023-04-18T10:59:50.378Z,97.04
2023-04-18T11:02:36.240Z,96.89
2023-04-18T11:05:25.302Z,97.34
2023-04-18T11:08:24.399Z,97.22
2023-04-18T11:11:11.460Z,97.49
2023-04-18T11:13:59.273Z,96.78
2023-04-18T11:16:45.825Z,96.69
2023-04-18T11:19:31.518Z,96.65
2023-04-18T11:22:18.218Z,96.52
2023-04-18T11:25:10.169Z,95.73
2023-04-18T11:27:59.264Z,96.03
2023-04-18T11:30:45.052Z,95.77
2023-04-18T11:33:31.435Z,94.71
2023-04-18T11:36:17.168Z,95.24
2023-04-18T11:39:03.497Z,94.71
2023-04-18T11:41:50.712Z,94.42
2023-04-18T11:44:39.956Z,94.65
2023-04-18T11:47:30.361Z,94.36
2023-04-18T11:50:16.730Z,94.99
2023-04-18T11:53:02.440Z,94.22
2023-04-18T11:55:55.932Z,93.39
2023-04-18T11:58:43.180Z,93.59
2023-04-18T12:01:29.045Z,93.69
2023-04-18T12:04:16.816Z,92.68
2023-04-18T12:07:03.996Z,92.44
2023-04-18T12:09:52.388Z,92.90
2023-04-18T12:12:48.518Z,92.47
2023-04-18T12:15:37.013Z,92.60
2023-04-18T12:18:23.561Z,92.10
2023-04-18T12:21:10.513Z,91.83
2023-04-18T12:23:57.511Z,91.62
2023-04-18T12:26:46.129Z,91.05
2023-04-18T12:29:32.457Z,91.16
2023-04-18T12:32:18.912Z,91.09
2023-04-18T12:35:06.441Z,90.61
2023-04-18T12:37:53.986Z,90.18
2023-04-18T12:40:41.077Z,90.33
2023-04-18T12:43:27.189Z,90.39
2023-04-18T12:46:13.618Z,89.88
2023-04-18T12:49:00.863Z,89.75
2023-04-18T12:51:46.787Z,89.72
2023-04-18T12:54:32.630Z,89.30
2023-04-18T12:57:18.711Z,88.84
2023-04-18T13:00:10.612Z,89.19
2023-04-18T13:02:56.929Z,88.48
2023-04-18T13:05:43.445Z,88.13
2023-04-18T13:08:29.612Z,87.66
2023-04-18T13:11:15.602Z,87.74
2023-04-18T13:14:01.983Z,88.15
2023-04-18T13:16:48.847Z,88.26
2023-04-18T13:19:35.248Z,87.48
2023-04-18T13:22:21.996Z,87.63
2023-04-18T13:25:10.581Z,87.22
2023-04-18T13:27:58.744Z,86.57
2023-04-18T13:30:45.098Z,86.63
2023-04-18T13:33:30.718Z,86.07
2023-04-18T13:36:16.674Z,85.78
2023-04-18T13:39:04.698Z,86.50
2023-04-18T13:41:53.726Z,85.76
2023-04-18T13:44:39.738Z,85.69
2023-04-18T13:47:26.139Z,85.96
2023-04-18T13:50:12.392Z,85.95
2023-04-18T13:52:58.241Z,85.18
2023-04-18T13:55:43.697Z,85.31
2023-04-18T13:58:29.911Z,85.31
2023-04-18T14:01:16.771Z,85.28
2023-04-18T14:04:03.792Z,84.46
2023-04-18T14:06:50.549Z,83.53
2023-04-18T14:09:36.708Z,83.55
2023-04-18T14:12:52.531Z,83.58
2023-04-18T14:19:04.881Z,83.01
2023-04-18T14:21:51.140Z,82.54
2023-04-18T14:24:36.717Z,81.93
2023-04-18T14:27:23.533Z,80.89
2023-04-18T14:30:10.343Z,81.36
2023-04-18T14:32:56.786Z,81.38
2023-04-18T14:35:43.983Z,81.35
2023-04-18T14:38:30.196Z,81.24
2023-04-18T14:41:16.630Z,81.18
2023-04-18T14:44:04.215Z,81.01
2023-04-18T14:46:50.916Z,80.31
2023-04-18T14:49:37.436Z,80.77
2023-04-18T14:52:23.861Z,80.14
2023-04-18T14:55:10.329Z,80.50
2023-04-18T14:57:56.428Z,80.83
2023-04-18T15:00:42.680Z,80.98
2023-04-18T15:03:29.055Z,81.19
2023-04-18T15:06:16.089Z,81.35
2023-04-18T15:09:02.069Z,81.35
2023-04-18T15:11:48.409Z,81.81
2023-04-18T15:14:37.493Z,81.71
2023-04-18T15:17:24.551Z,82.27
2023-04-18T15:20:10.653Z,82.33
2023-04-18T15:22:57.185Z,82.05
2023-04-18T15:25:44.915Z,82.14
2023-04-18T15:28:33.760Z,82.48
2023-04-18T15:31:23.666Z,82.49
2023-04-18T15:34:15.589Z,82.95
2023-04-18T15:37:11.050Z,82.92
2023-04-18T15:39:59.323Z,83.27
2023-04-18T15:42:51.323Z,83.48
2023-04-18T15:45:39.185Z,83.32
2023-04-18T15:48:36.468Z,83.61
2023-04-18T15:51:28.190Z,83.97
2023-04-18T15:54:15.529Z,83.83
2023-04-18T15:57:04.310Z,84.12
2023-04-18T15:59:50.474Z,84.36
2023-04-18T16:02:36.788Z,84.36
2023-04-18T16:05:24.061Z,84.72
2023-04-18T16:08:11.633Z,84.41
2023-04-18T16:11:11.942Z,84.45
2023-04-18T16:14:00.981Z,84.33
2023-04-18T16:16:48.782Z,84.50
2023-04-18T16:19:41.393Z,84.58
2023-04-18T16:22:28.937Z,84.73
2023-04-18T16:25:16.610Z,84.52
2023-04-18T16:28:02.326Z,84.97
2023-04-18T16:30:56.582Z,84.73
2023-04-18T16:34:00.461Z,85.20
2023-04-18T16:37:07.384Z,84.82
2023-04-18T16:39:54.176Z,84.90
2023-04-18T16:42:41.697Z,84.80
2023-04-18T16:45:31.952Z,84.75
2023-04-18T16:48:19.067Z,85.08
2023-04-18T16:51:06.121Z,85.47
2023-04-18T16:53:52.332Z,85.73
2023-04-18T16:56:40.131Z,85.89
2023-04-18T16:59:26.111Z,86.14
2023-04-18T17:02:13.708Z,86.34
2023-04-18T17:05:00.791Z,86.33
2023-04-18T17:07:51.791Z,86.29
2023-04-18T17:10:40.614Z,86.40
2023-04-18T17:13:29.045Z,86.76
2023-04-18T17:16:20.260Z,86.78
2023-04-18T17:19:10.358Z,86.62
2023-04-18T17:21:56.967Z,86.74
2023-04-18T17:24:45.280Z,86.75
2023-04-18T17:27:31.872Z,86.98
2023-04-18T17:30:21.386Z,86.90
2023-04-18T17:33:11.000Z,86.81
2023-04-18T17:35:57.827Z,86.58
2023-04-18T17:38:49.512Z,86.84
2023-04-18T17:41:38.560Z,86.69
2023-04-18T17:44:25.965Z,86.66
2023-04-18T17:47:14.070Z,86.91
2023-04-18T17:50:03.180Z,86.87
2023-04-18T17:52:50.063Z,86.98
2023-04-18T17:55:40.172Z,86.96
2023-04-18T17:58:27.792Z,87.15
2023-04-18T18:01:20.017Z,86.94
2023-04-18T18:04:07.208Z,86.85
2023-04-18T18:06:54.736Z,86.92
2023-04-18T18:09:42.362Z,86.78
2023-04-18T18:12:28.766Z,86.86
2023-04-18T18:15:15.448Z,86.72
2023-04-18T18:18:02.374Z,86.97
2023-04-18T18:20:48.884Z,87.09
2023-04-18T18:23:34.487Z,87.42
2023-04-18T18:26:20.540Z,87.25
2023-04-18T18:29:09.497Z,87.58
2023-04-18T18:31:55.451Z,87.12
2023-04-18T18:34:41.009Z,87.36
2023-04-18T18:37:27.702Z,87.27
2023-04-18T18:40:13.734Z,87.27
2023-04-18T18:43:00.647Z,87.64
2023-04-18T18:45:46.452Z,88.03
2023-04-18T18:48:33.066Z,88.32
2023-04-18T18:51:19.311Z,88.44
2023-04-18T18:54:05.821Z,88.99
2023-04-18T18:56:52.370Z,89.34
2023-04-18T18:59:38.760Z,89.73
2023-04-18T19:02:25.359Z,90.24
2023-04-18T19:05:13.217Z,90.36
2023-04-18T19:07:59.695Z,90.39
2023-04-18T19:10:46.120Z,90.90
2023-04-18T19:13:31.652Z,90.93
2023-04-18T19:16:18.214Z,91.85
2023-04-18T19:19:04.390Z,91.41
2023-04-18T19:21:51.002Z,91.98
2023-04-18T19:24:37.131Z,92.44
2023-04-18T19:27:23.274Z,92.65
2023-04-18T19:30:10.651Z,93.09
2023-04-18T19:32:56.886Z,93.38
2023-04-18T19:35:43.536Z,93.32
2023-04-18T19:38:29.971Z,93.80
2023-04-18T19:41:15.896Z,94.06
2023-04-18T19:44:01.952Z,94.61
2023-04-18T19:46:47.536Z,94.93
2023-04-18T19:49:33.832Z,95.19
2023-04-18T19:52:19.309Z,95.48
2023-04-18T19:55:05.650Z,95.45
2023-04-18T19:57:55.516Z,96.04
2023-04-18T20:00:42.010Z,96.04
2023-04-18T20:03:28.087Z,96.43
2023-04-18T20:06:14.312Z,96.68
2023-04-18T20:09:00.614Z,96.59
2023-04-18T20:11:47.987Z,96.81
2023-04-18T20:14:33.706Z,97.01
2023-04-18T20:17:19.814Z,97.30
2023-04-18T20:20:08.871Z,97.04
2023-04-18T20:22:55.427Z,97.23
2023-04-18T20:25:41.613Z,96.81
2023-04-18T20:28:27.838Z,96.80
2023-04-18T20:31:13.712Z,96.22
2023-04-18T20:34:00.339Z,95.85
2023-04-18T20:36:46.589Z,95.89
2023-04-18T20:39:33.460Z,95.90
2023-04-18T20:42:19.491Z,95.52
2023-04-18T20:45:06.740Z,95.40
2023-04-18T20:47:52.637Z,95.74
2023-04-18T20:50:40.275Z,95.48
2023-04-18T20:53:27.202Z,95.58
2023-04-18T20:56:13.604Z,96.04
2023-04-18T20:58:59.344Z,96.03
2023-04-18T21:01:45.865Z,96.24
2023-04-18T21:04:31.799Z,96.86
2023-04-18T21:07:18.294Z,96.80
2023-04-18T21:10:04.681Z,97.40
2023-04-18T21:12:51.042Z,97.64
2023-04-18T21:15:36.925Z,97.88
2023-04-18T21:18:24.080Z,97.21
2023-04-18T21:21:10.075Z,96.50
2023-04-18T21:23:56.733Z,94.63
2023-04-18T21:26:42.771Z,94.38
2023-04-18T21:29:28.846Z,93.52
2023-04-18T21:32:14.649Z,93.12
2023-04-18T21:35:01.718Z,89.50
2023-04-18T21:37:47.968Z,89.06
2023-04-18T21:40:34.574Z,86.57
2023-04-18T21:43:20.814Z,85.75
2023-04-18T21:46:07.072Z,84.04
2023-04-18T21:48:53.081Z,83.20
2023-04-18T21:51:39.227Z,82.76
2023-04-18T21:54:24.818Z,81.21
2023-04-18T21:57:10.819Z,76.43
2023-04-18T21:59:57.700Z,76.84
2023-04-18T22:02:44.008Z,74.60
2023-04-18T22:05:30.491Z,75.47
2023-04-18T22:08:16.975Z,74.98
2023-04-18T22:11:04.828Z,74.60
2023-04-18T22:13:54.209Z,74.96
2023-04-18T22:16:40.512Z,74.11
2023-04-18T22:19:29.906Z,73.60
2023-04-18T22:22:15.874Z,74.22
2023-04-18T22:25:02.261Z,73.91
2023-04-18T22:27:48.548Z,73.26
2023-04-18T22:30:34.670Z,73.59
2023-04-18T22:33:20.981Z,73.94
2023-04-18T22:36:07.460Z,74.06
2023-04-18T22:38:53.360Z,74.12
2023-04-18T22:41:39.468Z,74.53
2023-04-18T22:44:25.095Z,74.50
2023-04-18T22:47:11.699Z,74.74
2023-04-18T22:49:57.756Z,74.68
2023-04-18T22:52:44.167Z,74.78
2023-04-18T22:55:29.733Z,74.37
2023-04-18T22:58:16.266Z,74.87
2023-04-18T23:01:01.853Z,74.69
2023-04-18T23:03:48.452Z,74.32
2023-04-18T23:06:35.971Z,74.20
2023-04-18T23:09:22.241Z,73.77
2023-04-18T23:12:08.146Z,73.80
2023-04-18T23:14:54.234Z,73.45
2023-04-18T23:17:40.276Z,73.14
2023-04-18T23:20:26.249Z,73.06
2023-04-18T23:23:12.003Z,73.28
2023-04-18T23:25:58.712Z,73.93
2023-04-18T23:28:45.034Z,73.23
2023-04-18T23:31:33.060Z,73.74
2023-04-18T23:34:19.280Z,74.06
2023-04-18T23:37:05.891Z,74.39
2023-04-18T23:39:51.684Z,74.37
2023-04-18T23:42:38.345Z,74.44
2023-04-18T23:45:24.641Z,74.62
2023-04-18T23:48:11.460Z,74.97
2023-04-18T23:50:57.309Z,75.87
2023-04-18T23:53:43.497Z,74.91
2023-04-18T23:56:29.754Z,75.82
2023-04-18T23:59:16.363Z,75.26
